STAZIONE AMATORIALE METEOROLOGICA DI VILLALVERNIA
Centro raccolta dati meteo



Villalvernia CAM SSO more information Villalvernia CAM SSO


Villalvernia CAM NNO more information Villalvernia CAM NNO


Visit our other weather sites:

Meteo Live Pozzolo
Formigaro

Meteo Tortona Live


You find our weather info also at:

Weather Underground

AWEKAS

Citizen Weather Observer Program (CWOP)

HAMweather, WeatherForYou, PWS Weather



Wind From: 18-09-2018 10:00 Until: 19-09-2018 18:59 warning for: Wind Level: Yellow info button

Nearby METAR Reports

   
LIMJ - Genova/Sestri, Italy
Distance from station: SSE 55 km
Updated: 19-09-2018 09:50
Clear  
Clear  
   Wind: ENE 7.4 km/h
Wind: ENE 7.4 km/h
Temperature: 25°C
Dew Point: 18°C
Humidity: 65%
Barometer: 1019 hPa
Visibility: More than 10 km
Cloud details: Clear
LIMJ 190750Z 07004KT 020V110 CAVOK 25/18 Q1019
LIMC - Milano/Malpensa, Italy
Distance from station: N 87 km
Updated: 19-09-2018 09:50
Clear  
Clear  
   Wind: NNE 11.1 km/h
Wind: NNE 11.1 km/h
Temperature: 22°C
Dew Point: 17°C
Humidity: 73%
Barometer: 1021 hPa
Visibility: More than 10 km
Cloud details: Clear
LIMC 190750Z 03006KT CAVOK 22/17 Q1021 NOSIG
LIML - Milano/Linate, Italy
Distance from station: NE 91 km
Updated: 19-09-2018 09:50
Few Clouds  
Few Clouds  
   Wind: East 7.4 km/h
Wind: East 7.4 km/h
Temperature: 22°C
Dew Point: 18°C
Humidity: 78%
Barometer: 1021 hPa
Clouds: Few Clouds
Visibility: More than 10 km
Cloud details: Few Clouds 1219.2 m
LIML 190750Z 08004KT 9999 FEW040 22/18 Q1021 NOSIG
LIMV - Giovi Pass, Italy
Distance from station: SE 46 km
Updated: 19-09-2018 08:55
Fog  
Fog  
   Wind: varies Calm
Wind: varies Calm
Temperature: 16°C
Dew Point: 16°C
Humidity: 100%
Barometer: 1021 hPa
Visibility: 0 km
Cloud details: Overcast
LIMV 190655Z /////KT 0200 FG VV/// 16/16 Q1021 RMK MON INVIS VAL INVIS VIS MIN 0200
LIME - Bergamo/Orio Ser, Italy
Distance from station: NE 129 km
Updated: 19-09-2018 09:50
Few Clouds  
Few Clouds  
   Wind: varies 1.9 km/h
Wind: varies 1.9 km/h
Temperature: 22°C
Dew Point: 17°C
Humidity: 73%
Barometer: 1021 hPa
Clouds: Few Clouds
Visibility: 9 km
Cloud details: Few Clouds 914.4 m
LIME 190750Z VRB01KT 9000 FEW030 22/17 Q1021 NOSIG
LIRF - Rome/Fiumicino, Italy
Distance from station: ESE 7 km
Updated: 19-09-2018 09:50
Partly Cloudy  
Partly Cloudy  
   Wind: ENE 11.1 km/h
Wind: ENE 11.1 km/h
Temperature: 23°C
Dew Point: 20°C
Humidity: 83%
Barometer: 1019 hPa
Clouds: Partly Cloudy
Visibility: More than 10 km
Cloud details: Partly Cloudy 1524 m
LIRF 190750Z 06006KT 9999 SCT050 23/20 Q1019 NOSIG
LIRA - Ciampino(It-Afb/, Italy
Distance from station: E 37 km
Updated: 19-09-2018 09:50
Few Clouds  
Few Clouds  
   Wind: varies 3.7 km/h
Wind: varies 3.7 km/h
Temperature: 22°C
Dew Point: 20°C
Humidity: 88%
Barometer: 1019 hPa
Clouds: Few Clouds
Visibility: More than 10 km
Cloud details: Few Clouds 1828.8 m
LIRA 190750Z VRB02KT 9999 FEW060 22/20 Q1019
  

Script developed by  Saratoga-weather.org Adapted for the template by  Weerstation Leuven